sensor_id;sensor_type;location;lat;lon;timestamp;temperature;humidity
76211;DHT22;65003;49.518;11.280;2023-08-07T00:00:01;12.90;99.90
76211;DHT22;65003;49.518;11.280;2023-08-07T00:02:28;12.80;99.90
76211;DHT22;65003;49.518;11.280;2023-08-07T00:04:55;12.80;99.90
76211;DHT22;65003;49.518;11.280;2023-08-07T00:07:21;12.80;99.90
76211;DHT22;65003;49.518;11.280;2023-08-07T00:09:48;12.80;99.90
76211;DHT22;65003;49.518;11.280;2023-08-07T00:12:14;12.80;99.90
76211;DHT22;65003;49.518;11.280;2023-08-07T00:14:41;12.80;99.90
76211;DHT22;65003;49.518;11.280;2023-08-07T00:17:07;12.80;99.90
76211;DHT22;65003;49.518;11.280;2023-08-07T00:19:34;12.80;99.90
76211;DHT22;65003;49.518;11.280;2023-08-07T00:22:01;12.70;99.90
76211;DHT22;65003;49.518;11.280;2023-08-07T00:24:27;12.80;99.90
76211;DHT22;65003;49.518;11.280;2023-08-07T00:26:54;12.80;99.90
76211;DHT22;65003;49.518;11.280;2023-08-07T00:29:20;12.80;99.90
76211;DHT22;65003;49.518;11.280;2023-08-07T00:31:47;12.80;99.90
76211;DHT22;65003;49.518;11.280;2023-08-07T00:34:13;12.80;99.90
76211;DHT22;65003;49.518;11.280;2023-08-07T00:36:40;12.80;99.90
76211;DHT22;65003;49.518;11.280;2023-08-07T00:39:07;12.70;99.90
76211;DHT22;65003;49.518;11.280;2023-08-07T00:41:33;12.80;99.90
76211;DHT22;65003;49.518;11.280;2023-08-07T00:44:00;12.80;99.90
76211;DHT22;65003;49.518;11.280;2023-08-07T00:46:27;12.80;99.90
76211;DHT22;65003;49.518;11.280;2023-08-07T00:48:53;12.80;99.90
76211;DHT22;65003;49.518;11.280;2023-08-07T00:51:20;12.80;99.90
76211;DHT22;65003;49.518;11.280;2023-08-07T00:53:46;12.80;99.90
76211;DHT22;65003;49.518;11.280;2023-08-07T00:56:13;12.80;99.90
76211;DHT22;65003;49.518;11.280;2023-08-07T00:58:39;12.70;99.90
76211;DHT22;65003;49.518;11.280;2023-08-07T01:01:06;12.70;99.90
76211;DHT22;65003;49.518;11.280;2023-08-07T01:03:33;12.70;99.90
76211;DHT22;65003;49.518;11.280;2023-08-07T01:05:59;12.70;99.90
76211;DHT22;65003;49.518;11.280;2023-08-07T01:08:26;12.70;99.90
76211;DHT22;65003;49.518;11.280;2023-08-07T01:11:05;12.70;99.90
76211;DHT22;65003;49.518;11.280;2023-08-07T01:13:28;12.70;99.90
76211;DHT22;65003;49.518;11.280;2023-08-07T01:15:55;12.70;99.90
76211;DHT22;65003;49.518;11.280;2023-08-07T01:18:21;12.70;99.90
76211;DHT22;65003;49.518;11.280;2023-08-07T01:20:47;12.70;99.90
76211;DHT22;65003;49.518;11.280;2023-08-07T01:23:14;12.70;99.90
76211;DHT22;65003;49.518;11.280;2023-08-07T01:25:41;12.70;99.90
76211;DHT22;65003;49.518;11.280;2023-08-07T01:28:14;12.70;99.90
76211;DHT22;65003;49.518;11.280;2023-08-07T01:30:40;12.70;99.90
76211;DHT22;65003;49.518;11.280;2023-08-07T01:33:22;12.60;99.90
76211;DHT22;65003;49.518;11.280;2023-08-07T01:35:49;12.70;99.90
76211;DHT22;65003;49.518;11.280;2023-08-07T01:38:14;12.70;99.90
76211;DHT22;65003;49.518;11.280;2023-08-07T01:40:41;12.60;99.90
76211;DHT22;65003;49.518;11.280;2023-08-07T01:43:08;12.60;99.90
76211;DHT22;65003;49.518;11.280;2023-08-07T01:45:34;12.70;99.90
76211;DHT22;65003;49.518;11.280;2023-08-07T01:48:01;12.70;99.90
76211;DHT22;65003;49.518;11.280;2023-08-07T01:50:27;12.60;99.90
76211;DHT22;65003;49.518;11.280;2023-08-07T01:52:54;12.60;99.90
76211;DHT22;65003;49.518;11.280;2023-08-07T01:55:21;12.60;99.90
76211;DHT22;65003;49.518;11.280;2023-08-07T01:57:47;12.70;99.90
76211;DHT22;65003;49.518;11.280;2023-08-07T02:00:14;12.60;99.90
76211;DHT22;65003;49.518;11.280;2023-08-07T02:02:40;12.60;99.90
76211;DHT22;65003;49.518;11.280;2023-08-07T02:05:07;12.60;99.90
76211;DHT22;65003;49.518;11.280;2023-08-07T02:07:33;12.50;99.90
76211;DHT22;65003;49.518;11.280;2023-08-07T02:10:00;12.50;99.90
76211;DHT22;65003;49.518;11.280;2023-08-07T02:12:27;12.50;99.90
76211;DHT22;65003;49.518;11.280;2023-08-07T02:14:53;12.50;99.90
76211;DHT22;65003;49.518;11.280;2023-08-07T02:17:21;12.40;99.90
76211;DHT22;65003;49.518;11.280;2023-08-07T02:19:47;12.40;99.90
76211;DHT22;65003;49.518;11.280;2023-08-07T02:22:14;12.50;99.90
76211;DHT22;65003;49.518;11.280;2023-08-07T02:24:41;12.40;99.90
76211;DHT22;65003;49.518;11.280;2023-08-07T02:27:07;12.40;99.90
76211;DHT22;65003;49.518;11.280;2023-08-07T02:29:34;12.50;99.90
76211;DHT22;65003;49.518;11.280;2023-08-07T02:32:01;12.50;99.90
76211;DHT22;65003;49.518;11.280;2023-08-07T02:34:28;12.40;99.90
76211;DHT22;65003;49.518;11.280;2023-08-07T02:36:54;12.40;99.90
76211;DHT22;65003;49.518;11.280;2023-08-07T02:39:22;12.40;99.90
76211;DHT22;65003;49.518;11.280;2023-08-07T02:41:47;12.40;99.90
76211;DHT22;65003;49.518;11.280;2023-08-07T02:44:14;12.40;99.90
76211;DHT22;65003;49.518;11.280;2023-08-07T02:46:41;12.30;99.90
76211;DHT22;65003;49.518;11.280;2023-08-07T02:49:07;12.40;99.90
76211;DHT22;65003;49.518;11.280;2023-08-07T02:51:34;12.40;99.90
76211;DHT22;65003;49.518;11.280;2023-08-07T02:54:00;12.40;99.90
76211;DHT22;65003;49.518;11.280;2023-08-07T02:56:27;12.40;99.90
76211;DHT22;65003;49.518;11.280;2023-08-07T02:58:54;12.40;99.90
76211;DHT22;65003;49.518;11.280;2023-08-07T03:01:20;12.30;99.90
76211;DHT22;65003;49.518;11.280;2023-08-07T03:03:48;12.30;99.90
76211;DHT22;65003;49.518;11.280;2023-08-07T03:06:14;12.30;99.90
76211;DHT22;65003;49.518;11.280;2023-08-07T03:08:41;12.30;99.90
76211;DHT22;65003;49.518;11.280;2023-08-07T03:11:07;12.30;99.90
76211;DHT22;65003;49.518;11.280;2023-08-07T03:13:34;12.30;99.90
76211;DHT22;65003;49.518;11.280;2023-08-07T03:16:01;12.30;99.90
76211;DHT22;65003;49.518;11.280;2023-08-07T03:18:27;12.30;99.90
76211;DHT22;65003;49.518;11.280;2023-08-07T03:20:55;12.30;99.90
76211;DHT22;65003;49.518;11.280;2023-08-07T03:23:22;12.30;99.90
76211;DHT22;65003;49.518;11.280;2023-08-07T03:25:48;12.40;99.90
76211;DHT22;65003;49.518;11.280;2023-08-07T03:28:14;12.40;99.90
76211;DHT22;65003;49.518;11.280;2023-08-07T03:30:41;12.30;99.90
76211;DHT22;65003;49.518;11.280;2023-08-07T03:33:07;12.30;99.90
76211;DHT22;65003;49.518;11.280;2023-08-07T03:35:34;12.30;99.90
76211;DHT22;65003;49.518;11.280;2023-08-07T03:38:01;12.30;99.90
76211;DHT22;65003;49.518;11.280;2023-08-07T03:40:27;12.30;99.90
76211;DHT22;65003;49.518;11.280;2023-08-07T03:42:54;12.30;99.90
76211;DHT22;65003;49.518;11.280;2023-08-07T03:45:20;12.30;99.90
76211;DHT22;65003;49.518;11.280;2023-08-07T03:47:47;12.40;99.90
76211;DHT22;65003;49.518;11.280;2023-08-07T03:50:14;12.30;99.90
76211;DHT22;65003;49.518;11.280;2023-08-07T03:52:40;12.30;99.90
76211;DHT22;65003;49.518;11.280;2023-08-07T03:55:07;12.30;99.90
76211;DHT22;65003;49.518;11.280;2023-08-07T03:57:33;12.20;99.90
76211;DHT22;65003;49.518;11.280;2023-08-07T04:00:00;12.20;99.90
76211;DHT22;65003;49.518;11.280;2023-08-07T04:02:27;12.30;99.90
76211;DHT22;65003;49.518;11.280;2023-08-07T04:04:53;12.20;99.90
76211;DHT22;65003;49.518;11.280;2023-08-07T04:07:20;12.30;99.90
76211;DHT22;65003;49.518;11.280;2023-08-07T04:09:46;12.20;99.90
76211;DHT22;65003;49.518;11.280;2023-08-07T04:12:13;12.20;99.90
76211;DHT22;65003;49.518;11.280;2023-08-07T04:14:40;12.20;99.90
76211;DHT22;65003;49.518;11.280;2023-08-07T04:17:06;12.20;99.90
76211;DHT22;65003;49.518;11.280;2023-08-07T04:19:33;12.20;99.90
76211;DHT22;65003;49.518;11.280;2023-08-07T04:21:59;12.10;99.90
76211;DHT22;65003;49.518;11.280;2023-08-07T04:24:26;12.20;99.90
76211;DHT22;65003;49.518;11.280;2023-08-07T04:26:53;12.30;99.90
76211;DHT22;65003;49.518;11.280;2023-08-07T04:29:19;12.40;99.90
76211;DHT22;65003;49.518;11.280;2023-08-07T04:31:46;12.50;99.90
76211;DHT22;65003;49.518;11.280;2023-08-07T04:34:12;12.60;99.90
76211;DHT22;65003;49.518;11.280;2023-08-07T04:36:39;12.70;99.90
76211;DHT22;65003;49.518;11.280;2023-08-07T04:39:05;12.70;99.90
76211;DHT22;65003;49.518;11.280;2023-08-07T04:41:32;12.80;99.90
76211;DHT22;65003;49.518;11.280;2023-08-07T04:43:59;12.80;99.90
76211;DHT22;65003;49.518;11.280;2023-08-07T04:46:26;12.80;99.90
76211;DHT22;65003;49.518;11.280;2023-08-07T04:48:52;12.90;99.90
76211;DHT22;65003;49.518;11.280;2023-08-07T04:51:18;13.00;99.90
76211;DHT22;65003;49.518;11.280;2023-08-07T04:53:45;13.00;99.90
76211;DHT22;65003;49.518;11.280;2023-08-07T04:56:12;13.00;99.90
76211;DHT22;65003;49.518;11.280;2023-08-07T04:58:38;13.00;99.90
76211;DHT22;65003;49.518;11.280;2023-08-07T05:01:05;13.00;99.90
76211;DHT22;65003;49.518;11.280;2023-08-07T05:03:32;13.00;99.90
76211;DHT22;65003;49.518;11.280;2023-08-07T05:05:59;13.00;99.90
76211;DHT22;65003;49.518;11.280;2023-08-07T05:08:26;13.00;99.90
76211;DHT22;65003;49.518;11.280;2023-08-07T05:10:52;13.00;99.90
76211;DHT22;65003;49.518;11.280;2023-08-07T05:13:19;13.00;99.90
76211;DHT22;65003;49.518;11.280;2023-08-07T05:15:46;13.00;99.90
76211;DHT22;65003;49.518;11.280;2023-08-07T05:18:13;12.90;99.90
76211;DHT22;65003;49.518;11.280;2023-08-07T05:20:39;12.70;99.90
76211;DHT22;65003;49.518;11.280;2023-08-07T05:23:06;12.70;99.90
76211;DHT22;65003;49.518;11.280;2023-08-07T05:25:32;12.60;99.90
76211;DHT22;65003;49.518;11.280;2023-08-07T05:27:59;12.50;99.90
76211;DHT22;65003;49.518;11.280;2023-08-07T05:30:26;12.60;99.90
76211;DHT22;65003;49.518;11.280;2023-08-07T05:32:52;12.50;99.90
76211;DHT22;65003;49.518;11.280;2023-08-07T05:35:19;12.50;99.90
76211;DHT22;65003;49.518;11.280;2023-08-07T05:37:45;12.50;99.90
76211;DHT22;65003;49.518;11.280;2023-08-07T05:40:12;12.50;99.90
76211;DHT22;65003;49.518;11.280;2023-08-07T05:42:39;12.40;99.90
76211;DHT22;65003;49.518;11.280;2023-08-07T05:45:05;12.40;99.90
76211;DHT22;65003;49.518;11.280;2023-08-07T05:47:32;12.40;99.90
76211;DHT22;65003;49.518;11.280;2023-08-07T05:49:59;12.40;99.90
76211;DHT22;65003;49.518;11.280;2023-08-07T05:52:25;12.30;99.90
76211;DHT22;65003;49.518;11.280;2023-08-07T05:54:52;12.30;99.90
76211;DHT22;65003;49.518;11.280;2023-08-07T05:57:18;12.30;99.90
76211;DHT22;65003;49.518;11.280;2023-08-07T05:59:45;12.30;99.90
76211;DHT22;65003;49.518;11.280;2023-08-07T06:02:12;12.40;99.90
76211;DHT22;65003;49.518;11.280;2023-08-07T06:04:38;12.30;99.90
76211;DHT22;65003;49.518;11.280;2023-08-07T06:07:05;12.40;99.90
76211;DHT22;65003;49.518;11.280;2023-08-07T06:09:32;12.40;99.90
76211;DHT22;65003;49.518;11.280;2023-08-07T06:11:58;12.40;99.90
76211;DHT22;65003;49.518;11.280;2023-08-07T06:14:25;12.40;99.90
76211;DHT22;65003;49.518;11.280;2023-08-07T06:16:51;12.40;99.90
76211;DHT22;65003;49.518;11.280;2023-08-07T06:19:18;12.50;99.90
76211;DHT22;65003;49.518;11.280;2023-08-07T06:21:44;12.50;99.90
76211;DHT22;65003;49.518;11.280;2023-08-07T06:24:11;12.60;99.90
76211;DHT22;65003;49.518;11.280;2023-08-07T06:26:38;12.60;99.90
76211;DHT22;65003;49.518;11.280;2023-08-07T06:29:04;12.60;99.90
76211;DHT22;65003;49.518;11.280;2023-08-07T06:31:31;12.60;99.90
76211;DHT22;65003;49.518;11.280;2023-08-07T06:33:57;12.60;99.90
76211;DHT22;65003;49.518;11.280;2023-08-07T06:36:24;12.60;99.90
76211;DHT22;65003;49.518;11.280;2023-08-07T06:38:50;12.60;99.90
76211;DHT22;65003;49.518;11.280;2023-08-07T06:41:17;12.50;99.90
76211;DHT22;65003;49.518;11.280;2023-08-07T06:43:44;12.50;99.90
76211;DHT22;65003;49.518;11.280;2023-08-07T06:46:10;12.50;99.90
76211;DHT22;65003;49.518;11.280;2023-08-07T06:48:37;12.50;99.90
76211;DHT22;65003;49.518;11.280;2023-08-07T06:51:03;12.60;99.90
76211;DHT22;65003;49.518;11.280;2023-08-07T06:53:30;13.30;99.90
76211;DHT22;65003;49.518;11.280;2023-08-07T06:55:57;12.60;99.90
76211;DHT22;65003;49.518;11.280;2023-08-07T06:58:23;12.50;99.90
76211;DHT22;65003;49.518;11.280;2023-08-07T07:00:50;12.50;99.90
76211;DHT22;65003;49.518;11.280;2023-08-07T07:03:16;12.50;99.90
76211;DHT22;65003;49.518;11.280;2023-08-07T07:05:43;12.50;99.90
76211;DHT22;65003;49.518;11.280;2023-08-07T07:08:09;12.60;99.90
76211;DHT22;65003;49.518;11.280;2023-08-07T07:10:36;12.50;99.90
76211;DHT22;65003;49.518;11.280;2023-08-07T07:13:03;12.50;99.90
76211;DHT22;65003;49.518;11.280;2023-08-07T07:15:29;12.50;99.90
76211;DHT22;65003;49.518;11.280;2023-08-07T07:17:56;12.40;99.90
76211;DHT22;65003;49.518;11.280;2023-08-07T07:20:22;12.40;99.90
76211;DHT22;65003;49.518;11.280;2023-08-07T07:22:49;12.40;99.90
76211;DHT22;65003;49.518;11.280;2023-08-07T07:25:16;12.40;99.90
76211;DHT22;65003;49.518;11.280;2023-08-07T07:27:42;12.40;99.90
76211;DHT22;65003;49.518;11.280;2023-08-07T07:30:09;12.40;99.90
76211;DHT22;65003;49.518;11.280;2023-08-07T07:32:36;12.30;99.90
76211;DHT22;65003;49.518;11.280;2023-08-07T07:35:02;12.30;99.90
76211;DHT22;65003;49.518;11.280;2023-08-07T07:37:30;12.40;99.90
76211;DHT22;65003;49.518;11.280;2023-08-07T07:39:56;12.40;99.90
76211;DHT22;65003;49.518;11.280;2023-08-07T07:42:22;12.40;99.90
76211;DHT22;65003;49.518;11.280;2023-08-07T07:44:49;12.40;99.90
76211;DHT22;65003;49.518;11.280;2023-08-07T07:47:15;12.50;99.90
76211;DHT22;65003;49.518;11.280;2023-08-07T07:49:45;12.60;99.90
76211;DHT22;65003;49.518;11.280;2023-08-07T07:52:09;12.60;99.90
76211;DHT22;65003;49.518;11.280;2023-08-07T07:54:36;12.60;99.90
76211;DHT22;65003;49.518;11.280;2023-08-07T07:57:03;12.60;99.90
76211;DHT22;65003;49.518;11.280;2023-08-07T07:59:29;12.70;99.90
76211;DHT22;65003;49.518;11.280;2023-08-07T08:01:56;12.80;99.90
76211;DHT22;65003;49.518;11.280;2023-08-07T08:04:22;12.90;99.90
76211;DHT22;65003;49.518;11.280;2023-08-07T08:06:49;12.90;99.90
76211;DHT22;65003;49.518;11.280;2023-08-07T08:09:16;12.90;99.90
76211;DHT22;65003;49.518;11.280;2023-08-07T08:11:42;12.90;99.90
76211;DHT22;65003;49.518;11.280;2023-08-07T08:14:09;12.80;99.90
76211;DHT22;65003;49.518;11.280;2023-08-07T08:16:35;12.80;99.90
76211;DHT22;65003;49.518;11.280;2023-08-07T08:19:02;12.80;99.90
76211;DHT22;65003;49.518;11.280;2023-08-07T08:21:28;12.80;99.90
76211;DHT22;65003;49.518;11.280;2023-08-07T08:23:55;12.80;99.90
76211;DHT22;65003;49.518;11.280;2023-08-07T08:26:22;12.80;99.90
76211;DHT22;65003;49.518;11.280;2023-08-07T08:28:48;12.90;99.90
76211;DHT22;65003;49.518;11.280;2023-08-07T08:31:15;13.00;99.90
76211;DHT22;65003;49.518;11.280;2023-08-07T08:33:41;13.00;99.90
76211;DHT22;65003;49.518;11.280;2023-08-07T08:36:08;13.00;99.90
76211;DHT22;65003;49.518;11.280;2023-08-07T08:38:35;13.00;99.90
76211;DHT22;65003;49.518;11.280;2023-08-07T08:41:02;13.00;99.90
76211;DHT22;65003;49.518;11.280;2023-08-07T08:43:28;13.00;99.90
76211;DHT22;65003;49.518;11.280;2023-08-07T08:45:54;13.00;99.90
76211;DHT22;65003;49.518;11.280;2023-08-07T08:48:21;13.00;99.90
76211;DHT22;65003;49.518;11.280;2023-08-07T08:50:48;13.00;99.90
76211;DHT22;65003;49.518;11.280;2023-08-07T08:53:14;13.00;99.90
76211;DHT22;65003;49.518;11.280;2023-08-07T08:55:41;13.00;99.90
76211;DHT22;65003;49.518;11.280;2023-08-07T08:58:07;13.00;99.90
76211;DHT22;65003;49.518;11.280;2023-08-07T09:00:34;13.10;99.90
76211;DHT22;65003;49.518;11.280;2023-08-07T09:03:00;13.20;99.90
76211;DHT22;65003;49.518;11.280;2023-08-07T09:05:27;13.30;99.90
76211;DHT22;65003;49.518;11.280;2023-08-07T09:07:54;13.20;99.90
76211;DHT22;65003;49.518;11.280;2023-08-07T09:10:20;13.30;99.90
76211;DHT22;65003;49.518;11.280;2023-08-07T09:12:57;13.30;99.90
76211;DHT22;65003;49.518;11.280;2023-08-07T09:15:20;13.30;99.90
76211;DHT22;65003;49.518;11.280;2023-08-07T09:17:47;13.30;99.90
76211;DHT22;65003;49.518;11.280;2023-08-07T09:20:13;13.20;99.90
76211;DHT22;65003;49.518;11.280;2023-08-07T09:22:41;13.20;99.90
76211;DHT22;65003;49.518;11.280;2023-08-07T09:25:08;13.10;99.90
76211;DHT22;65003;49.518;11.280;2023-08-07T09:27:34;13.10;99.90
76211;DHT22;65003;49.518;11.280;2023-08-07T09:30:01;13.00;99.90
76211;DHT22;65003;49.518;11.280;2023-08-07T09:32:27;13.10;99.90
76211;DHT22;65003;49.518;11.280;2023-08-07T09:34:54;13.00;99.90
76211;DHT22;65003;49.518;11.280;2023-08-07T09:37:21;13.00;99.90
76211;DHT22;65003;49.518;11.280;2023-08-07T09:39:47;13.00;99.90
76211;DHT22;65003;49.518;11.280;2023-08-07T09:42:14;13.10;99.90
76211;DHT22;65003;49.518;11.280;2023-08-07T09:44:40;13.00;99.90
76211;DHT22;65003;49.518;11.280;2023-08-07T09:47:12;13.10;99.90
76211;DHT22;65003;49.518;11.280;2023-08-07T09:49:38;13.10;99.90
76211;DHT22;65003;49.518;11.280;2023-08-07T09:52:06;13.30;99.90
76211;DHT22;65003;49.518;11.280;2023-08-07T09:54:33;13.30;99.90
76211;DHT22;65003;49.518;11.280;2023-08-07T09:56:59;13.20;99.90
76211;DHT22;65003;49.518;11.280;2023-08-07T09:59:26;13.30;99.90
76211;DHT22;65003;49.518;11.280;2023-08-07T10:01:52;13.30;99.90
76211;DHT22;65003;49.518;11.280;2023-08-07T10:04:19;13.30;99.90
76211;DHT22;65003;49.518;11.280;2023-08-07T10:06:45;13.40;99.90
76211;DHT22;65003;49.518;11.280;2023-08-07T10:09:12;13.30;99.90
76211;DHT22;65003;49.518;11.280;2023-08-07T10:11:38;13.30;99.90
76211;DHT22;65003;49.518;11.280;2023-08-07T10:14:05;13.20;99.90
76211;DHT22;65003;49.518;11.280;2023-08-07T10:16:32;13.20;99.90
76211;DHT22;65003;49.518;11.280;2023-08-07T10:18:59;13.30;99.90
76211;DHT22;65003;49.518;11.280;2023-08-07T10:21:25;13.40;99.90
76211;DHT22;65003;49.518;11.280;2023-08-07T10:23:52;13.30;99.90
76211;DHT22;65003;49.518;11.280;2023-08-07T10:26:19;13.20;99.90
76211;DHT22;65003;49.518;11.280;2023-08-07T10:28:46;13.20;99.90
76211;DHT22;65003;49.518;11.280;2023-08-07T10:31:12;13.20;99.90
76211;DHT22;65003;49.518;11.280;2023-08-07T10:33:40;13.20;99.90
76211;DHT22;65003;49.518;11.280;2023-08-07T10:36:09;13.20;99.90
76211;DHT22;65003;49.518;11.280;2023-08-07T10:38:35;13.20;99.90
76211;DHT22;65003;49.518;11.280;2023-08-07T10:41:06;13.20;99.90
76211;DHT22;65003;49.518;11.280;2023-08-07T10:43:36;13.30;99.90
76211;DHT22;65003;49.518;11.280;2023-08-07T10:46:03;13.40;99.90
76211;DHT22;65003;49.518;11.280;2023-08-07T10:48:29;13.40;99.90
76211;DHT22;65003;49.518;11.280;2023-08-07T10:50:57;13.40;99.90
76211;DHT22;65003;49.518;11.280;2023-08-07T10:53:30;13.40;99.90
76211;DHT22;65003;49.518;11.280;2023-08-07T10:55:56;13.40;99.90
76211;DHT22;65003;49.518;11.280;2023-08-07T10:58:28;13.40;99.90
76211;DHT22;65003;49.518;11.280;2023-08-07T11:00:52;13.50;99.90
76211;DHT22;65003;49.518;11.280;2023-08-07T11:03:26;13.50;99.90
76211;DHT22;65003;49.518;11.280;2023-08-07T11:05:52;13.50;99.90
76211;DHT22;65003;49.518;11.280;2023-08-07T11:08:22;13.50;99.90
76211;DHT22;65003;49.518;11.280;2023-08-07T11:10:48;13.40;99.90
76211;DHT22;65003;49.518;11.280;2023-08-07T11:13:14;13.40;99.90
76211;DHT22;65003;49.518;11.280;2023-08-07T11:15:41;13.40;99.90
76211;DHT22;65003;49.518;11.280;2023-08-07T11:18:08;13.40;99.90
76211;DHT22;65003;49.518;11.280;2023-08-07T11:20:34;13.50;99.90
76211;DHT22;65003;49.518;11.280;2023-08-07T11:23:01;13.50;99.90
76211;DHT22;65003;49.518;11.280;2023-08-07T11:25:27;13.60;99.90
76211;DHT22;65003;49.518;11.280;2023-08-07T11:27:54;13.50;99.90
76211;DHT22;65003;49.518;11.280;2023-08-07T11:30:21;13.50;99.90
76211;DHT22;65003;49.518;11.280;2023-08-07T11:32:47;13.50;99.90
76211;DHT22;65003;49.518;11.280;2023-08-07T11:35:14;13.50;99.90
76211;DHT22;65003;49.518;11.280;2023-08-07T11:37:46;13.60;99.90
76211;DHT22;65003;49.518;11.280;2023-08-07T11:40:12;13.70;99.90
76211;DHT22;65003;49.518;11.280;2023-08-07T11:42:39;14.60;99.90
76211;DHT22;65003;49.518;11.280;2023-08-07T11:45:06;13.70;99.90
76211;DHT22;65003;49.518;11.280;2023-08-07T11:47:33;13.70;99.90
76211;DHT22;65003;49.518;11.280;2023-08-07T11:49:59;13.70;99.90
76211;DHT22;65003;49.518;11.280;2023-08-07T11:52:26;13.70;99.90
76211;DHT22;65003;49.518;11.280;2023-08-07T11:54:52;13.70;99.90
76211;DHT22;65003;49.518;11.280;2023-08-07T11:57:20;13.80;99.90
76211;DHT22;65003;49.518;11.280;2023-08-07T11:59:48;13.80;99.90
76211;DHT22;65003;49.518;11.280;2023-08-07T12:02:14;13.80;99.90
76211;DHT22;65003;49.518;11.280;2023-08-07T12:04:40;13.80;99.90
76211;DHT22;65003;49.518;11.280;2023-08-07T12:07:07;13.80;99.90
76211;DHT22;65003;49.518;11.280;2023-08-07T12:09:33;13.80;99.90
76211;DHT22;65003;49.518;11.280;2023-08-07T12:12:00;13.80;99.90
76211;DHT22;65003;49.518;11.280;2023-08-07T12:14:30;13.80;99.90
76211;DHT22;65003;49.518;11.280;2023-08-07T12:16:56;13.80;99.90
76211;DHT22;65003;49.518;11.280;2023-08-07T12:19:23;13.80;99.90
76211;DHT22;65003;49.518;11.280;2023-08-07T12:21:49;13.80;99.90
76211;DHT22;65003;49.518;11.280;2023-08-07T12:24:16;13.80;99.90
76211;DHT22;65003;49.518;11.280;2023-08-07T12:26:42;13.90;99.90
76211;DHT22;65003;49.518;11.280;2023-08-07T12:29:09;13.90;99.90
76211;DHT22;65003;49.518;11.280;2023-08-07T12:31:35;13.90;99.90
76211;DHT22;65003;49.518;11.280;2023-08-07T12:34:02;13.90;99.90
76211;DHT22;65003;49.518;11.280;2023-08-07T12:36:29;13.90;99.90
76211;DHT22;65003;49.518;11.280;2023-08-07T12:38:55;14.00;99.90
76211;DHT22;65003;49.518;11.280;2023-08-07T12:41:22;14.10;99.90
76211;DHT22;65003;49.518;11.280;2023-08-07T12:43:48;14.20;99.90
76211;DHT22;65003;49.518;11.280;2023-08-07T12:46:15;14.10;99.90
76211;DHT22;65003;49.518;11.280;2023-08-07T12:48:41;14.10;99.90
76211;DHT22;65003;49.518;11.280;2023-08-07T12:51:08;14.00;99.90
76211;DHT22;65003;49.518;11.280;2023-08-07T12:53:35;14.00;99.90
76211;DHT22;65003;49.518;11.280;2023-08-07T12:56:01;14.00;99.90
76211;DHT22;65003;49.518;11.280;2023-08-07T12:58:28;13.90;99.90
76211;DHT22;65003;49.518;11.280;2023-08-07T13:00:54;13.90;99.90
76211;DHT22;65003;49.518;11.280;2023-08-07T13:03:21;13.90;99.90
76211;DHT22;65003;49.518;11.280;2023-08-07T13:05:48;13.80;99.90
76211;DHT22;65003;49.518;11.280;2023-08-07T13:08:14;13.80;99.90
76211;DHT22;65003;49.518;11.280;2023-08-07T13:10:41;13.80;99.90
76211;DHT22;65003;49.518;11.280;2023-08-07T13:13:07;13.80;99.90
76211;DHT22;65003;49.518;11.280;2023-08-07T13:15:34;13.80;99.90
76211;DHT22;65003;49.518;11.280;2023-08-07T13:18:01;13.80;99.90
76211;DHT22;65003;49.518;11.280;2023-08-07T13:20:27;13.80;99.90
76211;DHT22;65003;49.518;11.280;2023-08-07T13:22:54;13.80;99.90
76211;DHT22;65003;49.518;11.280;2023-08-07T13:25:20;13.70;99.90
76211;DHT22;65003;49.518;11.280;2023-08-07T13:27:47;13.60;99.90
76211;DHT22;65003;49.518;11.280;2023-08-07T13:30:13;13.60;99.90
76211;DHT22;65003;49.518;11.280;2023-08-07T13:32:40;13.50;99.90
76211;DHT22;65003;49.518;11.280;2023-08-07T13:35:07;13.60;99.90
76211;DHT22;65003;49.518;11.280;2023-08-07T13:37:33;13.50;99.90
76211;DHT22;65003;49.518;11.280;2023-08-07T13:40:00;13.60;99.90
76211;DHT22;65003;49.518;11.280;2023-08-07T13:42:27;13.60;99.90
76211;DHT22;65003;49.518;11.280;2023-08-07T13:44:54;13.50;99.90
76211;DHT22;65003;49.518;11.280;2023-08-07T13:47:20;13.40;99.90
76211;DHT22;65003;49.518;11.280;2023-08-07T13:49:46;13.50;99.90
76211;DHT22;65003;49.518;11.280;2023-08-07T13:52:13;13.50;99.90
76211;DHT22;65003;49.518;11.280;2023-08-07T13:54:39;13.60;99.90
76211;DHT22;65003;49.518;11.280;2023-08-07T13:57:06;13.60;99.90
76211;DHT22;65003;49.518;11.280;2023-08-07T13:59:33;13.60;99.90
76211;DHT22;65003;49.518;11.280;2023-08-07T14:01:59;13.50;99.90
76211;DHT22;65003;49.518;11.280;2023-08-07T14:04:26;13.50;99.90
76211;DHT22;65003;49.518;11.280;2023-08-07T14:06:52;13.50;99.90
76211;DHT22;65003;49.518;11.280;2023-08-07T14:09:19;13.50;99.90
76211;DHT22;65003;49.518;11.280;2023-08-07T14:11:46;13.40;99.90
76211;DHT22;65003;49.518;11.280;2023-08-07T14:14:12;13.50;99.90
76211;DHT22;65003;49.518;11.280;2023-08-07T14:16:39;13.50;99.90
76211;DHT22;65003;49.518;11.280;2023-08-07T14:19:05;13.40;99.90
76211;DHT22;65003;49.518;11.280;2023-08-07T14:21:32;13.40;99.90
76211;DHT22;65003;49.518;11.280;2023-08-07T14:23:59;13.50;99.90
76211;DHT22;65003;49.518;11.280;2023-08-07T14:26:26;13.50;99.90
76211;DHT22;65003;49.518;11.280;2023-08-07T14:28:52;13.40;99.90
76211;DHT22;65003;49.518;11.280;2023-08-07T14:31:19;13.40;99.90
76211;DHT22;65003;49.518;11.280;2023-08-07T14:33:45;13.50;99.90
76211;DHT22;65003;49.518;11.280;2023-08-07T14:36:12;13.50;99.90
76211;DHT22;65003;49.518;11.280;2023-08-07T14:38:39;13.50;99.90
76211;DHT22;65003;49.518;11.280;2023-08-07T14:41:05;13.50;99.90
76211;DHT22;65003;49.518;11.280;2023-08-07T14:43:32;13.50;99.90
76211;DHT22;65003;49.518;11.280;2023-08-07T14:45:58;13.50;99.90
76211;DHT22;65003;49.518;11.280;2023-08-07T14:48:25;13.60;99.90
76211;DHT22;65003;49.518;11.280;2023-08-07T14:50:51;13.60;99.90
76211;DHT22;65003;49.518;11.280;2023-08-07T14:53:18;13.60;99.90
76211;DHT22;65003;49.518;11.280;2023-08-07T14:55:45;13.60;99.90
76211;DHT22;65003;49.518;11.280;2023-08-07T14:58:12;13.60;99.90
76211;DHT22;65003;49.518;11.280;2023-08-07T15:00:38;13.60;99.90
76211;DHT22;65003;49.518;11.280;2023-08-07T15:03:04;13.70;99.90
76211;DHT22;65003;49.518;11.280;2023-08-07T15:05:31;13.70;99.90
76211;DHT22;65003;49.518;11.280;2023-08-07T15:07:59;13.70;99.90
76211;DHT22;65003;49.518;11.280;2023-08-07T15:10:24;13.60;99.90